Carman, Canada
Current Conditions -  °F | °C
As of 9:00 PM on Friday 19 Dec 2014 (Local Time) from CYWG Reporting Station
Haze Haze  
Wind Chill: 19°   Ceiling: 400
Heat Index: 27°   Visibility: 4mi
Dew Point: 25°   Wind: 7mph
Humidity: 93%   Direction: 180°S
Pressure: 30.03"   Gusts: NA
Location:  49.51°N, 98°W
Report Text: CYWG 200300Z 18006KT 4SM BR OVC004 M03/M04 A3003 RMK ST8 SLP183
Loading
Personal Weather Stations






























Interactive Weather Map New forecast layout! Learn more

10-Day Weather Forecast

Advertisements
Track Severe Weather on mobile